sensor_id;sensor_type;location;lat;lon;timestamp;P1;durP1;ratioP1;P2;durP2;ratioP2
29120;SDS011;16191;49.548;8.658;2022-12-29T00:00:06;6.15;;;2.08;;
29120;SDS011;16191;49.548;8.658;2022-12-29T00:02:41;6.47;;;1.80;;
29120;SDS011;16191;49.548;8.658;2022-12-29T00:05:09;7.50;;;2.15;;
29120;SDS011;16191;49.548;8.658;2022-12-29T00:07:36;4.38;;;1.63;;
29120;SDS011;16191;49.548;8.658;2022-12-29T00:10:03;4.03;;;2.20;;
29120;SDS011;16191;49.548;8.658;2022-12-29T00:12:30;5.45;;;1.70;;
29120;SDS011;16191;49.548;8.658;2022-12-29T00:15:16;7.82;;;2.10;;
29120;SDS011;16191;49.548;8.658;2022-12-29T00:18:02;2.63;;;1.33;;
29120;SDS011;16191;49.548;8.658;2022-12-29T00:20:28;3.88;;;1.98;;
29120;SDS011;16191;49.548;8.658;2022-12-29T00:23:14;6.05;;;1.85;;
29120;SDS011;16191;49.548;8.658;2022-12-29T00:26:02;5.80;;;1.77;;
29120;SDS011;16191;49.548;8.658;2022-12-29T00:28:49;4.00;;;1.80;;
29120;SDS011;16191;49.548;8.658;2022-12-29T00:31:36;3.08;;;1.55;;
29120;SDS011;16191;49.548;8.658;2022-12-29T00:34:21;2.15;;;1.27;;
29120;SDS011;16191;49.548;8.658;2022-12-29T00:37:06;4.95;;;1.77;;
29120;SDS011;16191;49.548;8.658;2022-12-29T00:39:33;3.83;;;1.80;;
29120;SDS011;16191;49.548;8.658;2022-12-29T00:42:18;6.90;;;1.75;;
29120;SDS011;16191;49.548;8.658;2022-12-29T00:45:04;6.50;;;2.15;;
29120;SDS011;16191;49.548;8.658;2022-12-29T00:47:31;5.10;;;1.50;;
29120;SDS011;16191;49.548;8.658;2022-12-29T00:49:58;3.88;;;1.60;;
29120;SDS011;16191;49.548;8.658;2022-12-29T00:52:24;5.40;;;1.90;;
29120;SDS011;16191;49.548;8.658;2022-12-29T00:54:51;11.23;;;2.00;;
29120;SDS011;16191;49.548;8.658;2022-12-29T00:57:17;3.45;;;1.70;;
29120;SDS011;16191;49.548;8.658;2022-12-29T00:59:44;3.22;;;1.55;;
29120;SDS011;16191;49.548;8.658;2022-12-29T01:02:14;3.83;;;1.75;;
29120;SDS011;16191;49.548;8.658;2022-12-29T01:04:42;9.10;;;2.20;;
29120;SDS011;16191;49.548;8.658;2022-12-29T01:07:08;8.88;;;1.95;;
29120;SDS011;16191;49.548;8.658;2022-12-29T01:09:36;5.78;;;1.75;;
29120;SDS011;16191;49.548;8.658;2022-12-29T01:12:21;3.38;;;1.42;;
29120;SDS011;16191;49.548;8.658;2022-12-29T01:15:10;4.50;;;1.80;;
29120;SDS011;16191;49.548;8.658;2022-12-29T01:17:40;7.38;;;1.63;;
29120;SDS011;16191;49.548;8.658;2022-12-29T01:20:07;5.40;;;2.05;;
29120;SDS011;16191;49.548;8.658;2022-12-29T01:22:34;3.53;;;1.90;;
29120;SDS011;16191;49.548;8.658;2022-12-29T01:25:01;3.90;;;1.95;;
29120;SDS011;16191;49.548;8.658;2022-12-29T01:27:48;4.03;;;1.77;;
29120;SDS011;16191;49.548;8.658;2022-12-29T01:30:35;5.82;;;2.20;;
29120;SDS011;16191;49.548;8.658;2022-12-29T01:33:22;5.40;;;2.10;;
29120;SDS011;16191;49.548;8.658;2022-12-29T01:36:12;4.93;;;1.60;;
29120;SDS011;16191;49.548;8.658;2022-12-29T01:39:02;4.00;;;1.70;;
29120;SDS011;16191;49.548;8.658;2022-12-29T01:41:48;5.00;;;1.60;;
29120;SDS011;16191;49.548;8.658;2022-12-29T01:47:20;5.55;;;1.55;;
29120;SDS011;16191;49.548;8.658;2022-12-29T01:50:44;8.10;;;1.80;;
29120;SDS011;16191;49.548;8.658;2022-12-29T01:53:00;3.10;;;1.40;;
29120;SDS011;16191;49.548;8.658;2022-12-29T01:55:30;6.05;;;1.52;;
29120;SDS011;16191;49.548;8.658;2022-12-29T02:00:30;4.18;;;1.58;;
29120;SDS011;16191;49.548;8.658;2022-12-29T02:02:57;4.18;;;1.52;;
29120;SDS011;16191;49.548;8.658;2022-12-29T02:08:02;4.40;;;1.73;;
29120;SDS011;16191;49.548;8.658;2022-12-29T02:10:30;2.05;;;1.35;;
29120;SDS011;16191;49.548;8.658;2022-12-29T02:12:59;6.05;;;1.70;;
29120;SDS011;16191;49.548;8.658;2022-12-29T02:15:30;1.60;;;1.30;;
29120;SDS011;16191;49.548;8.658;2022-12-29T02:32:31;3.17;;;1.40;;
29120;SDS011;16191;49.548;8.658;2022-12-29T02:37:45;1.52;;;0.90;;
29120;SDS011;16191;49.548;8.658;2022-12-29T02:40:45;5.25;;;1.45;;
29120;SDS011;16191;49.548;8.658;2022-12-29T02:43:39;2.38;;;1.20;;
29120;SDS011;16191;49.548;8.658;2022-12-29T02:46:21;4.70;;;1.20;;
29120;SDS011;16191;49.548;8.658;2022-12-29T02:48:59;4.63;;;1.27;;
29120;SDS011;16191;49.548;8.658;2022-12-29T02:52:16;1.65;;;0.95;;
29120;SDS011;16191;49.548;8.658;2022-12-29T02:54:26;3.10;;;1.40;;
29120;SDS011;16191;49.548;8.658;2022-12-29T02:59:47;2.63;;;1.02;;
29120;SDS011;16191;49.548;8.658;2022-12-29T03:08:05;3.20;;;1.30;;
29120;SDS011;16191;49.548;8.658;2022-12-29T03:10:43;2.92;;;1.05;;
29120;SDS011;16191;49.548;8.658;2022-12-29T03:19:21;3.47;;;1.10;;
29120;SDS011;16191;49.548;8.658;2022-12-29T03:21:59;2.28;;;1.00;;
29120;SDS011;16191;49.548;8.658;2022-12-29T03:25:00;5.90;;;1.40;;
29120;SDS011;16191;49.548;8.658;2022-12-29T03:27:36;1.92;;;1.10;;
29120;SDS011;16191;49.548;8.658;2022-12-29T03:30:07;3.47;;;1.10;;
29120;SDS011;16191;49.548;8.658;2022-12-29T03:32:38;4.18;;;1.10;;
29120;SDS011;16191;49.548;8.658;2022-12-29T03:35:11;1.70;;;0.90;;
29120;SDS011;16191;49.548;8.658;2022-12-29T03:37:43;4.65;;;1.27;;
29120;SDS011;16191;49.548;8.658;2022-12-29T03:40:16;5.10;;;1.20;;
29120;SDS011;16191;49.548;8.658;2022-12-29T03:42:45;1.80;;;1.20;;
29120;SDS011;16191;49.548;8.658;2022-12-29T03:45:13;2.75;;;1.15;;
29120;SDS011;16191;49.548;8.658;2022-12-29T03:47:40;4.82;;;1.33;;
29120;SDS011;16191;49.548;8.658;2022-12-29T03:50:07;12.85;;;1.65;;
29120;SDS011;16191;49.548;8.658;2022-12-29T03:52:38;1.45;;;1.20;;
29120;SDS011;16191;49.548;8.658;2022-12-29T03:55:05;2.92;;;1.15;;
29120;SDS011;16191;49.548;8.658;2022-12-29T03:57:33;2.33;;;1.20;;
29120;SDS011;16191;49.548;8.658;2022-12-29T04:00:04;2.47;;;1.30;;
29120;SDS011;16191;49.548;8.658;2022-12-29T04:02:40;2.70;;;1.40;;
29120;SDS011;16191;49.548;8.658;2022-12-29T04:05:10;5.75;;;1.30;;
29120;SDS011;16191;49.548;8.658;2022-12-29T04:07:37;3.22;;;0.93;;
29120;SDS011;16191;49.548;8.658;2022-12-29T04:10:04;2.22;;;1.25;;
29120;SDS011;16191;49.548;8.658;2022-12-29T04:12:33;1.20;;;1.00;;
29120;SDS011;16191;49.548;8.658;2022-12-29T04:15:01;3.35;;;1.35;;
29120;SDS011;16191;49.548;8.658;2022-12-29T04:17:27;4.32;;;1.00;;
29120;SDS011;16191;49.548;8.658;2022-12-29T04:19:54;2.33;;;1.10;;
29120;SDS011;16191;49.548;8.658;2022-12-29T04:22:42;2.90;;;0.98;;
29120;SDS011;16191;49.548;8.658;2022-12-29T04:25:08;5.68;;;1.50;;
29120;SDS011;16191;49.548;8.658;2022-12-29T04:27:36;1.83;;;1.20;;
29120;SDS011;16191;49.548;8.658;2022-12-29T04:30:31;3.58;;;1.42;;
29120;SDS011;16191;49.548;8.658;2022-12-29T04:33:04;3.15;;;1.33;;
29120;SDS011;16191;49.548;8.658;2022-12-29T04:35:30;2.05;;;1.10;;
29120;SDS011;16191;49.548;8.658;2022-12-29T04:37:57;6.07;;;1.40;;
29120;SDS011;16191;49.548;8.658;2022-12-29T04:40:24;3.25;;;1.45;;
29120;SDS011;16191;49.548;8.658;2022-12-29T04:42:51;2.05;;;1.02;;
29120;SDS011;16191;49.548;8.658;2022-12-29T04:45:19;4.63;;;1.17;;
29120;SDS011;16191;49.548;8.658;2022-12-29T04:48:18;1.58;;;1.10;;
29120;SDS011;16191;49.548;8.658;2022-12-29T04:51:02;3.13;;;1.20;;
29120;SDS011;16191;49.548;8.658;2022-12-29T04:53:35;5.13;;;1.35;;
29120;SDS011;16191;49.548;8.658;2022-12-29T04:56:03;3.92;;;1.13;;
29120;SDS011;16191;49.548;8.658;2022-12-29T04:58:31;1.98;;;1.02;;
29120;SDS011;16191;49.548;8.658;2022-12-29T05:00:58;4.53;;;1.70;;
29120;SDS011;16191;49.548;8.658;2022-12-29T05:03:29;5.22;;;1.23;;
29120;SDS011;16191;49.548;8.658;2022-12-29T05:05:56;5.38;;;0.95;;
29120;SDS011;16191;49.548;8.658;2022-12-29T05:08:23;1.92;;;0.90;;
29120;SDS011;16191;49.548;8.658;2022-12-29T05:10:56;2.67;;;1.08;;
29120;SDS011;16191;49.548;8.658;2022-12-29T05:13:22;2.60;;;1.38;;
29120;SDS011;16191;49.548;8.658;2022-12-29T05:15:50;4.38;;;1.10;;
29120;SDS011;16191;49.548;8.658;2022-12-29T05:18:19;5.03;;;1.10;;
29120;SDS011;16191;49.548;8.658;2022-12-29T05:20:47;1.00;;;0.75;;
29120;SDS011;16191;49.548;8.658;2022-12-29T05:23:14;2.65;;;1.02;;
29120;SDS011;16191;49.548;8.658;2022-12-29T05:25:42;2.60;;;0.98;;
29120;SDS011;16191;49.548;8.658;2022-12-29T05:28:20;3.60;;;1.40;;
29120;SDS011;16191;49.548;8.658;2022-12-29T05:30:50;4.22;;;1.52;;
29120;SDS011;16191;49.548;8.658;2022-12-29T05:33:18;4.85;;;1.45;;
29120;SDS011;16191;49.548;8.658;2022-12-29T05:35:47;1.90;;;0.90;;
29120;SDS011;16191;49.548;8.658;2022-12-29T05:38:14;3.17;;;0.80;;
29120;SDS011;16191;49.548;8.658;2022-12-29T05:40:42;4.40;;;1.13;;
29120;SDS011;16191;49.548;8.658;2022-12-29T05:43:26;4.28;;;1.20;;
29120;SDS011;16191;49.548;8.658;2022-12-29T05:46:19;5.93;;;1.20;;
29120;SDS011;16191;49.548;8.658;2022-12-29T05:48:56;1.33;;;0.98;;
29120;SDS011;16191;49.548;8.658;2022-12-29T05:51:43;2.55;;;1.17;;
29120;SDS011;16191;49.548;8.658;2022-12-29T05:54:11;1.75;;;0.98;;
29120;SDS011;16191;49.548;8.658;2022-12-29T05:56:39;2.85;;;1.15;;
29120;SDS011;16191;49.548;8.658;2022-12-29T05:59:07;2.80;;;1.08;;
29120;SDS011;16191;49.548;8.658;2022-12-29T06:01:35;2.35;;;1.13;;
29120;SDS011;16191;49.548;8.658;2022-12-29T06:04:02;1.17;;;0.95;;
29120;SDS011;16191;49.548;8.658;2022-12-29T06:06:30;5.25;;;1.13;;
29120;SDS011;16191;49.548;8.658;2022-12-29T06:08:57;2.03;;;1.10;;
29120;SDS011;16191;49.548;8.658;2022-12-29T06:11:23;2.20;;;1.23;;
29120;SDS011;16191;49.548;8.658;2022-12-29T06:13:56;4.53;;;1.20;;
29120;SDS011;16191;49.548;8.658;2022-12-29T06:16:23;4.18;;;1.00;;
29120;SDS011;16191;49.548;8.658;2022-12-29T06:18:53;4.30;;;1.08;;
29120;SDS011;16191;49.548;8.658;2022-12-29T06:21:21;3.05;;;1.10;;
29120;SDS011;16191;49.548;8.658;2022-12-29T06:23:47;6.15;;;1.33;;
29120;SDS011;16191;49.548;8.658;2022-12-29T06:26:14;2.08;;;1.10;;
29120;SDS011;16191;49.548;8.658;2022-12-29T06:28:42;2.70;;;1.13;;
29120;SDS011;16191;49.548;8.658;2022-12-29T06:31:09;8.60;;;1.55;;
29120;SDS011;16191;49.548;8.658;2022-12-29T06:33:37;1.92;;;1.27;;
29120;SDS011;16191;49.548;8.658;2022-12-29T06:36:04;2.60;;;1.50;;
29120;SDS011;16191;49.548;8.658;2022-12-29T06:38:31;2.50;;;1.00;;
29120;SDS011;16191;49.548;8.658;2022-12-29T06:40:59;4.55;;;1.38;;
29120;SDS011;16191;49.548;8.658;2022-12-29T06:43:44;2.50;;;0.90;;
29120;SDS011;16191;49.548;8.658;2022-12-29T06:46:19;3.83;;;1.30;;
29120;SDS011;16191;49.548;8.658;2022-12-29T06:48:47;2.10;;;1.27;;
29120;SDS011;16191;49.548;8.658;2022-12-29T06:51:13;4.95;;;1.20;;
29120;SDS011;16191;49.548;8.658;2022-12-29T06:53:40;3.28;;;1.00;;
29120;SDS011;16191;49.548;8.658;2022-12-29T06:56:07;5.32;;;1.20;;
29120;SDS011;16191;49.548;8.658;2022-12-29T06:58:34;3.70;;;1.08;;
29120;SDS011;16191;49.548;8.658;2022-12-29T07:01:01;3.22;;;1.27;;
29120;SDS011;16191;49.548;8.658;2022-12-29T07:03:28;5.70;;;1.38;;
29120;SDS011;16191;49.548;8.658;2022-12-29T07:05:54;3.72;;;1.42;;
29120;SDS011;16191;49.548;8.658;2022-12-29T07:08:21;1.65;;;1.25;;
29120;SDS011;16191;49.548;8.658;2022-12-29T07:10:48;6.30;;;1.20;;
29120;SDS011;16191;49.548;8.658;2022-12-29T07:13:14;5.22;;;1.30;;
29120;SDS011;16191;49.548;8.658;2022-12-29T07:15:42;4.10;;;1.40;;
29120;SDS011;16191;49.548;8.658;2022-12-29T07:18:09;3.47;;;1.25;;
29120;SDS011;16191;49.548;8.658;2022-12-29T07:20:35;4.97;;;1.45;;
29120;SDS011;16191;49.548;8.658;2022-12-29T07:23:02;4.78;;;1.55;;
29120;SDS011;16191;49.548;8.658;2022-12-29T07:25:29;5.20;;;1.73;;
29120;SDS011;16191;49.548;8.658;2022-12-29T07:27:56;7.30;;;1.65;;
29120;SDS011;16191;49.548;8.658;2022-12-29T07:30:23;6.57;;;1.40;;
29120;SDS011;16191;49.548;8.658;2022-12-29T07:32:50;3.17;;;1.38;;
29120;SDS011;16191;49.548;8.658;2022-12-29T07:35:17;5.03;;;1.48;;
29120;SDS011;16191;49.548;8.658;2022-12-29T07:37:43;3.38;;;1.25;;
29120;SDS011;16191;49.548;8.658;2022-12-29T07:40:10;2.42;;;1.63;;
29120;SDS011;16191;49.548;8.658;2022-12-29T07:42:38;5.07;;;1.60;;
29120;SDS011;16191;49.548;8.658;2022-12-29T07:45:07;5.18;;;1.20;;
29120;SDS011;16191;49.548;8.658;2022-12-29T07:47:49;2.78;;;1.30;;
29120;SDS011;16191;49.548;8.658;2022-12-29T07:50:16;3.03;;;1.60;;
29120;SDS011;16191;49.548;8.658;2022-12-29T07:52:43;3.55;;;1.30;;
29120;SDS011;16191;49.548;8.658;2022-12-29T07:55:11;3.97;;;1.50;;
29120;SDS011;16191;49.548;8.658;2022-12-29T07:57:38;5.93;;;1.70;;
29120;SDS011;16191;49.548;8.658;2022-12-29T08:00:05;5.13;;;1.20;;
29120;SDS011;16191;49.548;8.658;2022-12-29T08:02:37;5.45;;;1.98;;
29120;SDS011;16191;49.548;8.658;2022-12-29T08:05:04;5.28;;;1.77;;
29120;SDS011;16191;49.548;8.658;2022-12-29T08:07:31;5.72;;;1.60;;
29120;SDS011;16191;49.548;8.658;2022-12-29T08:09:58;4.68;;;1.73;;
29120;SDS011;16191;49.548;8.658;2022-12-29T08:12:25;4.68;;;1.70;;
29120;SDS011;16191;49.548;8.658;2022-12-29T08:14:51;2.10;;;1.35;;
29120;SDS011;16191;49.548;8.658;2022-12-29T08:17:18;8.45;;;1.60;;
29120;SDS011;16191;49.548;8.658;2022-12-29T08:19:45;7.65;;;1.50;;
29120;SDS011;16191;49.548;8.658;2022-12-29T08:22:12;2.80;;;1.70;;
29120;SDS011;16191;49.548;8.658;2022-12-29T08:24:40;3.97;;;1.60;;
29120;SDS011;16191;49.548;8.658;2022-12-29T08:27:07;7.20;;;1.58;;
29120;SDS011;16191;49.548;8.658;2022-12-29T08:29:45;5.50;;;1.75;;
29120;SDS011;16191;49.548;8.658;2022-12-29T08:32:12;4.13;;;1.45;;
29120;SDS011;16191;49.548;8.658;2022-12-29T08:34:39;4.55;;;1.40;;
29120;SDS011;16191;49.548;8.658;2022-12-29T08:37:05;2.70;;;1.50;;
29120;SDS011;16191;49.548;8.658;2022-12-29T08:39:32;10.55;;;1.95;;
29120;SDS011;16191;49.548;8.658;2022-12-29T08:41:59;4.82;;;2.10;;
29120;SDS011;16191;49.548;8.658;2022-12-29T08:44:25;3.67;;;1.70;;
29120;SDS011;16191;49.548;8.658;2022-12-29T08:46:52;5.18;;;1.90;;
29120;SDS011;16191;49.548;8.658;2022-12-29T08:49:19;6.28;;;1.50;;
29120;SDS011;16191;49.548;8.658;2022-12-29T08:51:45;2.22;;;1.48;;
29120;SDS011;16191;49.548;8.658;2022-12-29T08:54:12;4.05;;;1.58;;
29120;SDS011;16191;49.548;8.658;2022-12-29T08:56:39;5.25;;;1.55;;
29120;SDS011;16191;49.548;8.658;2022-12-29T08:59:05;8.57;;;2.08;;
29120;SDS011;16191;49.548;8.658;2022-12-29T09:01:32;4.13;;;1.90;;
29120;SDS011;16191;49.548;8.658;2022-12-29T09:04:00;4.78;;;1.70;;
29120;SDS011;16191;49.548;8.658;2022-12-29T09:06:42;5.13;;;1.90;;
29120;SDS011;16191;49.548;8.658;2022-12-29T09:09:09;6.40;;;1.83;;
29120;SDS011;16191;49.548;8.658;2022-12-29T09:11:36;5.68;;;1.80;;
29120;SDS011;16191;49.548;8.658;2022-12-29T09:14:03;5.53;;;1.70;;
29120;SDS011;16191;49.548;8.658;2022-12-29T09:16:32;6.82;;;1.80;;
29120;SDS011;16191;49.548;8.658;2022-12-29T09:19:00;4.85;;;2.00;;
29120;SDS011;16191;49.548;8.658;2022-12-29T09:21:28;3.30;;;1.60;;
29120;SDS011;16191;49.548;8.658;2022-12-29T09:23:54;5.63;;;1.95;;
29120;SDS011;16191;49.548;8.658;2022-12-29T09:26:21;9.68;;;2.05;;
29120;SDS011;16191;49.548;8.658;2022-12-29T09:28:47;5.97;;;1.83;;
29120;SDS011;16191;49.548;8.658;2022-12-29T09:31:14;7.10;;;2.25;;
29120;SDS011;16191;49.548;8.658;2022-12-29T09:33:40;6.57;;;2.08;;
29120;SDS011;16191;49.548;8.658;2022-12-29T09:36:08;4.78;;;1.90;;
29120;SDS011;16191;49.548;8.658;2022-12-29T09:38:35;6.25;;;1.85;;
29120;SDS011;16191;49.548;8.658;2022-12-29T09:41:05;8.75;;;2.20;;
29120;SDS011;16191;49.548;8.658;2022-12-29T09:51:25;4.20;;;1.63;;
29120;SDS011;16191;49.548;8.658;2022-12-29T09:53:53;5.38;;;1.50;;
29120;SDS011;16191;49.548;8.658;2022-12-29T09:56:49;3.33;;;1.50;;
29120;SDS011;16191;49.548;8.658;2022-12-29T09:59:20;3.25;;;1.30;;
29120;SDS011;16191;49.548;8.658;2022-12-29T10:01:53;3.20;;;1.48;;
29120;SDS011;16191;49.548;8.658;2022-12-29T10:04:27;4.22;;;1.52;;
29120;SDS011;16191;49.548;8.658;2022-12-29T10:07:00;5.15;;;1.63;;
29120;SDS011;16191;49.548;8.658;2022-12-29T10:09:58;3.28;;;1.50;;
29120;SDS011;16191;49.548;8.658;2022-12-29T10:13:02;3.33;;;1.40;;
29120;SDS011;16191;49.548;8.658;2022-12-29T10:24:04;2.28;;;1.20;;
29120;SDS011;16191;49.548;8.658;2022-12-29T10:26:40;6.68;;;1.70;;
29120;SDS011;16191;49.548;8.658;2022-12-29T10:31:51;3.20;;;1.50;;
29120;SDS011;16191;49.548;8.658;2022-12-29T10:34:21;4.43;;;1.30;;
29120;SDS011;16191;49.548;8.658;2022-12-29T10:36:58;4.70;;;2.20;;
29120;SDS011;16191;49.548;8.658;2022-12-29T10:39:33;7.60;;;1.70;;
29120;SDS011;16191;49.548;8.658;2022-12-29T10:44:36;4.18;;;1.90;;
29120;SDS011;16191;49.548;8.658;2022-12-29T10:47:04;4.20;;;1.80;;
29120;SDS011;16191;49.548;8.658;2022-12-29T10:49:39;3.75;;;1.63;;
29120;SDS011;16191;49.548;8.658;2022-12-29T10:52:09;3.70;;;1.45;;
29120;SDS011;16191;49.548;8.658;2022-12-29T10:54:51;7.82;;;1.98;;
29120;SDS011;16191;49.548;8.658;2022-12-29T10:57:36;4.53;;;1.95;;
29120;SDS011;16191;49.548;8.658;2022-12-29T11:00:11;4.30;;;1.92;;
29120;SDS011;16191;49.548;8.658;2022-12-29T11:08:22;3.65;;;1.58;;
29120;SDS011;16191;49.548;8.658;2022-12-29T11:11:06;3.33;;;1.50;;
29120;SDS011;16191;49.548;8.658;2022-12-29T11:16:29;4.35;;;1.85;;
29120;SDS011;16191;49.548;8.658;2022-12-29T11:18:58;3.30;;;1.80;;
29120;SDS011;16191;49.548;8.658;2022-12-29T11:21:33;3.95;;;1.52;;
29120;SDS011;16191;49.548;8.658;2022-12-29T11:24:18;8.07;;;2.10;;
29120;SDS011;16191;49.548;8.658;2022-12-29T11:26:45;3.58;;;1.67;;
29120;SDS011;16191;49.548;8.658;2022-12-29T11:32:18;4.88;;;1.60;;
29120;SDS011;16191;49.548;8.658;2022-12-29T11:34:54;7.43;;;1.83;;
29120;SDS011;16191;49.548;8.658;2022-12-29T11:39:59;4.88;;;1.60;;
29120;SDS011;16191;49.548;8.658;2022-12-29T11:42:35;7.78;;;2.15;;
29120;SDS011;16191;49.548;8.658;2022-12-29T11:45:04;6.10;;;1.65;;
29120;SDS011;16191;49.548;8.658;2022-12-29T11:47:36;3.90;;;1.55;;
29120;SDS011;16191;49.548;8.658;2022-12-29T11:50:04;4.90;;;1.48;;
29120;SDS011;16191;49.548;8.658;2022-12-29T11:52:34;2.78;;;1.20;;
29120;SDS011;16191;49.548;8.658;2022-12-29T11:55:06;3.28;;;1.38;;
29120;SDS011;16191;49.548;8.658;2022-12-29T11:57:44;4.25;;;1.33;;
29120;SDS011;16191;49.548;8.658;2022-12-29T12:00:15;3.00;;;1.27;;
29120;SDS011;16191;49.548;8.658;2022-12-29T12:05:30;4.25;;;1.50;;
29120;SDS011;16191;49.548;8.658;2022-12-29T12:13:33;5.53;;;1.50;;
29120;SDS011;16191;49.548;8.658;2022-12-29T12:18:50;5.07;;;1.75;;
29120;SDS011;16191;49.548;8.658;2022-12-29T12:21:21;5.95;;;1.50;;
29120;SDS011;16191;49.548;8.658;2022-12-29T12:26:58;5.25;;;1.83;;
29120;SDS011;16191;49.548;8.658;2022-12-29T12:29:35;5.78;;;1.80;;
29120;SDS011;16191;49.548;8.658;2022-12-29T12:32:12;4.90;;;1.38;;
29120;SDS011;16191;49.548;8.658;2022-12-29T12:34:43;5.88;;;1.38;;
29120;SDS011;16191;49.548;8.658;2022-12-29T12:43:12;3.65;;;0.70;;
29120;SDS011;16191;49.548;8.658;2022-12-29T13:00:24;1.23;;;0.82;;
29120;SDS011;16191;49.548;8.658;2022-12-29T13:05:58;2.15;;;0.73;;
29120;SDS011;16191;49.548;8.658;2022-12-29T13:14:10;2.35;;;1.02;;
29120;SDS011;16191;49.548;8.658;2022-12-29T13:16:52;3.05;;;1.10;;
29120;SDS011;16191;49.548;8.658;2022-12-29T13:27:23;1.52;;;0.80;;
29120;SDS011;16191;49.548;8.658;2022-12-29T13:30:14;1.65;;;0.75;;
29120;SDS011;16191;49.548;8.658;2022-12-29T13:32:55;5.60;;;1.05;;
29120;SDS011;16191;49.548;8.658;2022-12-29T13:41:14;4.35;;;1.10;;
29120;SDS011;16191;49.548;8.658;2022-12-29T13:43:45;3.85;;;1.08;;
29120;SDS011;16191;49.548;8.658;2022-12-29T13:46:15;3.83;;;1.05;;
29120;SDS011;16191;49.548;8.658;2022-12-29T13:51:40;1.52;;;0.93;;
29120;SDS011;16191;49.548;8.658;2022-12-29T13:54:34;2.28;;;0.68;;
29120;SDS011;16191;49.548;8.658;2022-12-29T13:57:14;1.77;;;0.73;;
29120;SDS011;16191;49.548;8.658;2022-12-29T13:59:52;5.03;;;0.88;;
29120;SDS011;16191;49.548;8.658;2022-12-29T14:02:36;4.03;;;1.40;;
29120;SDS011;16191;49.548;8.658;2022-12-29T14:07:49;2.17;;;0.88;;
29120;SDS011;16191;49.548;8.658;2022-12-29T14:10:29;3.10;;;1.05;;
29120;SDS011;16191;49.548;8.658;2022-12-29T14:13:00;3.45;;;0.98;;
29120;SDS011;16191;49.548;8.658;2022-12-29T14:15:31;2.13;;;0.80;;
29120;SDS011;16191;49.548;8.658;2022-12-29T14:18:02;3.42;;;1.08;;
29120;SDS011;16191;49.548;8.658;2022-12-29T14:20:55;5.35;;;1.02;;
29120;SDS011;16191;49.548;8.658;2022-12-29T14:23:29;1.02;;;0.73;;
29120;SDS011;16191;49.548;8.658;2022-12-29T14:28:32;3.38;;;0.75;;
29120;SDS011;16191;49.548;8.658;2022-12-29T14:34:14;1.23;;;0.60;;
29120;SDS011;16191;49.548;8.658;2022-12-29T14:36:37;2.33;;;1.00;;
29120;SDS011;16191;49.548;8.658;2022-12-29T14:42:06;1.83;;;0.80;;
29120;SDS011;16191;49.548;8.658;2022-12-29T14:44:47;4.25;;;0.93;;
29120;SDS011;16191;49.548;8.658;2022-12-29T14:47:20;2.08;;;0.82;;
29120;SDS011;16191;49.548;8.658;2022-12-29T14:49:53;2.90;;;1.00;;
29120;SDS011;16191;49.548;8.658;2022-12-29T14:52:23;5.43;;;1.15;;
29120;SDS011;16191;49.548;8.658;2022-12-29T14:54:56;4.70;;;1.30;;
29120;SDS011;16191;49.548;8.658;2022-12-29T15:00:18;4.13;;;1.42;;
29120;SDS011;16191;49.548;8.658;2022-12-29T15:03:36;8.40;;;1.20;;
29120;SDS011;16191;49.548;8.658;2022-12-29T15:06:11;4.45;;;1.70;;
29120;SDS011;16191;49.548;8.658;2022-12-29T15:08:47;5.10;;;1.75;;
29120;SDS011;16191;49.548;8.658;2022-12-29T15:11:19;3.00;;;1.52;;
29120;SDS011;16191;49.548;8.658;2022-12-29T15:13:48;3.65;;;1.52;;
29120;SDS011;16191;49.548;8.658;2022-12-29T15:16:29;3.78;;;1.15;;
29120;SDS011;16191;49.548;8.658;2022-12-29T15:19:02;5.07;;;1.20;;
29120;SDS011;16191;49.548;8.658;2022-12-29T15:21:34;6.38;;;2.10;;
29120;SDS011;16191;49.548;8.658;2022-12-29T15:24:02;5.47;;;1.33;;
29120;SDS011;16191;49.548;8.658;2022-12-29T15:26:37;1.50;;;1.10;;
29120;SDS011;16191;49.548;8.658;2022-12-29T15:29:26;2.70;;;1.10;;
29120;SDS011;16191;49.548;8.658;2022-12-29T15:32:10;2.60;;;1.20;;
29120;SDS011;16191;49.548;8.658;2022-12-29T15:34:41;4.68;;;1.35;;
29120;SDS011;16191;49.548;8.658;2022-12-29T15:37:20;4.60;;;1.77;;
29120;SDS011;16191;49.548;8.658;2022-12-29T15:39:48;3.53;;;1.80;;
29120;SDS011;16191;49.548;8.658;2022-12-29T15:45:17;4.35;;;1.30;;
29120;SDS011;16191;49.548;8.658;2022-12-29T15:47:44;3.88;;;1.70;;
29120;SDS011;16191;49.548;8.658;2022-12-29T15:50:28;3.90;;;1.50;;
29120;SDS011;16191;49.548;8.658;2022-12-29T15:52:57;2.20;;;1.45;;
29120;SDS011;16191;49.548;8.658;2022-12-29T15:57:57;3.38;;;1.55;;
29120;SDS011;16191;49.548;8.658;2022-12-29T16:00:29;5.05;;;1.60;;
29120;SDS011;16191;49.548;8.658;2022-12-29T16:03:01;4.55;;;1.45;;
29120;SDS011;16191;49.548;8.658;2022-12-29T16:05:31;3.63;;;1.40;;
29120;SDS011;16191;49.548;8.658;2022-12-29T16:08:00;4.88;;;1.50;;
29120;SDS011;16191;49.548;8.658;2022-12-29T16:10:38;3.42;;;1.50;;
29120;SDS011;16191;49.548;8.658;2022-12-29T16:13:20;6.25;;;1.48;;
29120;SDS011;16191;49.548;8.658;2022-12-29T16:15:51;4.25;;;1.40;;
29120;SDS011;16191;49.548;8.658;2022-12-29T16:18:24;3.50;;;1.40;;
29120;SDS011;16191;49.548;8.658;2022-12-29T16:20:54;3.78;;;1.48;;
29120;SDS011;16191;49.548;8.658;2022-12-29T16:23:26;4.43;;;1.73;;
29120;SDS011;16191;49.548;8.658;2022-12-29T16:25:56;11.82;;;3.88;;
29120;SDS011;16191;49.548;8.658;2022-12-29T16:28:34;7.80;;;3.40;;
29120;SDS011;16191;49.548;8.658;2022-12-29T16:31:05;7.53;;;2.90;;
29120;SDS011;16191;49.548;8.658;2022-12-29T16:33:45;7.15;;;3.25;;
29120;SDS011;16191;49.548;8.658;2022-12-29T16:41:53;5.68;;;2.00;;
29120;SDS011;16191;49.548;8.658;2022-12-29T16:44:22;6.18;;;1.75;;
29120;SDS011;16191;49.548;8.658;2022-12-29T16:49:25;7.38;;;1.23;;
29120;SDS011;16191;49.548;8.658;2022-12-29T16:51:53;3.22;;;1.27;;
29120;SDS011;16191;49.548;8.658;2022-12-29T16:54:22;3.35;;;1.42;;
29120;SDS011;16191;49.548;8.658;2022-12-29T16:56:50;3.25;;;1.52;;
29120;SDS011;16191;49.548;8.658;2022-12-29T16:59:38;2.25;;;1.25;;
29120;SDS011;16191;49.548;8.658;2022-12-29T17:02:16;2.50;;;1.50;;
29120;SDS011;16191;49.548;8.658;2022-12-29T17:04:47;4.95;;;1.55;;
29120;SDS011;16191;49.548;8.658;2022-12-29T17:07:16;3.28;;;1.63;;
29120;SDS011;16191;49.548;8.658;2022-12-29T17:09:45;7.25;;;1.75;;
29120;SDS011;16191;49.548;8.658;2022-12-29T17:12:19;3.47;;;1.70;;
29120;SDS011;16191;49.548;8.658;2022-12-29T17:17:58;9.88;;;3.70;;
29120;SDS011;16191;49.548;8.658;2022-12-29T17:20:29;6.40;;;2.03;;
29120;SDS011;16191;49.548;8.658;2022-12-29T17:22:57;5.88;;;2.50;;
29120;SDS011;16191;49.548;8.658;2022-12-29T17:25:26;10.25;;;4.53;;
29120;SDS011;16191;49.548;8.658;2022-12-29T17:30:24;3.72;;;1.88;;
29120;SDS011;16191;49.548;8.658;2022-12-29T17:33:06;10.50;;;4.95;;
29120;SDS011;16191;49.548;8.658;2022-12-29T17:35:38;9.20;;;4.80;;
29120;SDS011;16191;49.548;8.658;2022-12-29T17:38:38;6.88;;;3.63;;
29120;SDS011;16191;49.548;8.658;2022-12-29T17:41:00;9.30;;;4.50;;
29120;SDS011;16191;49.548;8.658;2022-12-29T17:43:27;15.82;;;10.05;;
29120;SDS011;16191;49.548;8.658;2022-12-29T17:46:02;12.25;;;5.13;;
29120;SDS011;16191;49.548;8.658;2022-12-29T17:48:31;7.63;;;4.00;;
29120;SDS011;16191;49.548;8.658;2022-12-29T17:50:58;9.32;;;2.70;;
29120;SDS011;16191;49.548;8.658;2022-12-29T17:53:26;3.83;;;2.03;;
29120;SDS011;16191;49.548;8.658;2022-12-29T17:55:54;7.65;;;3.00;;
29120;SDS011;16191;49.548;8.658;2022-12-29T17:58:28;8.05;;;2.72;;
29120;SDS011;16191;49.548;8.658;2022-12-29T18:00:58;4.88;;;2.58;;
29120;SDS011;16191;49.548;8.658;2022-12-29T18:03:27;8.52;;;2.42;;
29120;SDS011;16191;49.548;8.658;2022-12-29T18:05:56;6.60;;;2.30;;
29120;SDS011;16191;49.548;8.658;2022-12-29T18:08:24;5.70;;;2.10;;